Time;durP1;ratioP1;P1;durP2;ratioP2;P2;SDS_P1;SDS_P2;PMS_P1;PMS_P2;Temp;Humidity;BMP_temperature;BMP_pressure;BME280_temperature;BME280_humidity;BME280_pressure;Samples;Min_cycle;Max_cycle;Signal;HPM_P1;HPM_P2
2022/08/28 00:02:25;;;;;;;16.20;5.00;;;;;;;19.76;67.67;98732.26;1740958;82;21004;-83
2022/08/28 00:04:52;;;;;;;12.70;5.50;;;;;;;19.76;69.28;98726.98;1740137;82;20987;-81
2022/08/28 00:07:18;;;;;;;13.78;5.20;;;;;;;19.75;68.55;98727.92;1739566;82;21048;-82
2022/08/28 00:09:45;;;;;;;16.25;5.75;;;;;;;19.75;69.10;98729.23;1738663;82;21043;-82
2022/08/28 00:12:12;;;;;;;14.13;5.25;;;;;;;19.73;67.84;98731.14;1734242;82;21031;-80
2022/08/28 00:14:39;;;;;;;12.70;4.90;;;;;;;19.67;68.98;98735.84;1722236;82;20983;-81
2022/08/28 00:17:05;;;;;;;15.32;5.15;;;;;;;19.61;69.65;98738.05;1738250;82;21028;-83
2022/08/28 00:19:33;;;;;;;15.28;4.97;;;;;;;19.57;69.40;98732.14;1741089;82;21069;-82
2022/08/28 00:22:03;;;;;;;10.70;5.45;;;;;;;19.51;68.85;98725.97;1742145;82;21000;-83
2022/08/28 00:24:30;;;;;;;16.32;5.50;;;;;;;19.47;69.90;98731.92;1742388;82;21015;-83
2022/08/28 00:29:42;;;;;;;11.80;5.20;;;;;;;19.37;68.33;98728.70;1722975;82;21003;-81
2022/08/28 00:32:08;;;;;;;12.40;4.58;;;;;;;19.27;69.29;98729.78;1735590;82;21052;-82
2022/08/28 00:34:35;;;;;;;10.08;4.85;;;;;;;19.19;68.39;98731.61;1742371;82;21039;-83
2022/08/28 00:37:01;;;;;;;10.08;4.62;;;;;;;19.13;69.75;98739.92;1742563;82;21020;-83
2022/08/28 00:39:28;;;;;;;10.53;4.90;;;;;;;19.02;68.81;98732.73;1742648;81;21064;-83
2022/08/28 00:41:56;;;;;;;10.18;4.67;;;;;;;18.97;69.08;98739.24;1738937;82;21099;-81
2022/08/28 00:44:26;;;;;;;13.43;4.47;;;;;;;18.92;68.38;98740.88;1736839;83;21063;-81
2022/08/28 00:46:56;;;;;;;11.78;4.25;;;;;;;18.90;68.69;98740.58;1736956;83;21075;-81
2022/08/28 00:49:27;;;;;;;10.68;4.83;;;;;;;18.89;67.74;98734.47;1736936;82;21020;-81
2022/08/28 00:52:06;;;;;;;13.50;4.87;;;;;;;18.86;68.36;98735.97;1737223;83;20968;-82
2022/08/28 00:54:41;;;;;;;9.90;4.25;;;;;;;18.85;69.83;98740.41;1727678;83;21568;-81
2022/08/28 00:57:13;;;;;;;10.82;4.70;;;;;;;18.90;70.39;98737.49;1720534;83;21080;-80
2022/08/28 00:59:39;;;;;;;13.40;4.60;;;;;;;18.94;70.42;98732.84;1737149;83;21000;-80
2022/08/28 01:02:07;;;;;;;18.20;4.75;;;;;;;18.97;70.87;98730.02;1737287;82;20993;-81
2022/08/28 01:04:34;;;;;;;9.60;4.92;;;;;;;19.00;71.23;98733.31;1732202;83;21004;-80
2022/08/28 01:07:05;;;;;;;8.38;4.40;;;;;;;19.02;70.46;98730.55;1721663;83;21032;-81
2022/08/28 01:09:36;;;;;;;15.95;5.30;;;;;;;19.02;70.36;98728.78;1736128;83;22140;-82
2022/08/28 01:12:12;;;;;;;13.62;5.22;;;;;;;18.99;70.07;98736.88;1731930;83;20996;-83
2022/08/28 01:14:41;;;;;;;9.10;4.70;;;;;;;18.98;70.40;98730.38;1728042;83;20991;-83
2022/08/28 01:17:09;;;;;;;11.30;4.78;;;;;;;18.97;70.45;98742.71;1737856;83;21512;-80
2022/08/28 01:19:41;;;;;;;11.15;4.55;;;;;;;18.94;70.89;98727.58;1736442;83;20976;-81
2022/08/28 01:22:13;;;;;;;9.85;5.15;;;;;;;18.89;70.87;98727.88;1708092;82;21042;-81
2022/08/28 01:24:40;;;;;;;8.90;5.03;;;;;;;18.82;70.09;98730.09;1719393;83;21524;-81
2022/08/28 01:27:07;;;;;;;12.58;4.70;;;;;;;18.74;69.36;98732.78;1709334;82;21004;-80
2022/08/28 01:29:35;;;;;;;13.20;5.00;;;;;;;18.68;70.69;98734.02;1736006;82;21016;-79
2022/08/28 01:32:04;;;;;;;6.78;4.22;;;;;;;18.63;70.73;98731.70;1736265;83;21032;-80
2022/08/28 01:34:32;;;;;;;9.83;5.00;;;;;;;18.57;70.70;98725.98;1736114;83;21000;-81
2022/08/28 01:36:59;;;;;;;11.97;4.83;;;;;;;18.53;69.88;98733.70;1736290;82;21106;-81
2022/08/28 01:39:26;;;;;;;11.88;4.85;;;;;;;18.46;70.55;98735.41;1735739;82;21063;-80
2022/08/28 01:41:55;;;;;;;9.90;5.30;;;;;;;18.43;71.97;98737.39;1742097;82;21050;-81
2022/08/28 01:44:26;;;;;;;12.00;4.15;;;;;;;18.40;71.28;98739.75;1749145;82;21050;-81
2022/08/28 01:46:56;;;;;;;9.78;5.05;;;;;;;18.37;70.28;98738.61;1745240;82;21038;-80
2022/08/28 01:49:27;;;;;;;10.78;4.30;;;;;;;18.37;72.46;98745.67;1758087;81;21315;-81
2022/08/28 01:51:53;;;;;;;11.55;4.50;;;;;;;18.37;71.66;98745.19;1757747;82;21471;-80
2022/08/28 01:54:19;;;;;;;13.53;4.60;;;;;;;18.36;70.47;98747.91;1757828;82;21011;-81
2022/08/28 01:56:46;;;;;;;10.05;4.50;;;;;;;18.37;70.48;98746.98;1743448;81;21057;-81
2022/08/28 01:59:14;;;;;;;12.23;4.53;;;;;;;18.35;72.18;98748.39;1750418;82;21572;-79
2022/08/28 02:01:42;;;;;;;10.00;5.00;;;;;;;18.37;72.33;98737.78;1746222;81;21039;-80
2022/08/28 02:04:10;;;;;;;10.90;4.65;;;;;;;18.40;71.47;98744.15;1748656;82;21022;-81
2022/08/28 02:06:37;;;;;;;9.00;4.28;;;;;;;18.38;71.65;98740.32;1745518;81;21056;-81
2022/08/28 02:09:06;;;;;;;10.58;4.45;;;;;;;18.38;71.47;98736.82;1746056;82;21542;-80
2022/08/28 02:11:33;;;;;;;14.47;5.20;;;;;;;18.37;70.59;98738.61;1749007;82;21032;-81
2022/08/28 02:14:01;;;;;;;13.00;4.83;;;;;;;18.32;70.37;98739.36;1737931;82;21023;-80
2022/08/28 02:16:28;;;;;;;15.35;5.00;;;;;;;18.31;71.41;98735.53;1733841;82;21061;-81
2022/08/28 02:18:55;;;;;;;10.80;4.92;;;;;;;18.29;71.07;98734.31;1747736;82;21029;-80
2022/08/28 02:21:24;;;;;;;15.93;5.08;;;;;;;18.31;72.87;98735.05;1745392;82;21074;-80
2022/08/28 02:23:50;;;;;;;14.95;5.08;;;;;;;18.29;70.55;98736.46;1751505;82;21066;-82
2022/08/28 02:26:17;;;;;;;16.02;4.90;;;;;;;18.23;70.51;98736.01;1743987;82;21054;-81
2022/08/28 02:28:44;;;;;;;11.68;4.53;;;;;;;18.19;72.07;98733.20;1758961;81;21015;-80
2022/08/28 02:31:11;;;;;;;11.00;5.15;;;;;;;18.13;70.85;98739.67;1759303;78;20960;-80
2022/08/28 02:33:42;;;;;;;15.20;4.97;;;;;;;18.09;71.96;98736.38;1739402;78;20999;-83
2022/08/28 02:36:12;;;;;;;9.28;4.85;;;;;;;18.07;73.09;98729.06;1746564;78;20991;-82
2022/08/28 02:38:39;;;;;;;9.30;4.40;;;;;;;18.07;72.76;98729.53;1728707;80;21130;-81
2022/08/28 02:41:06;;;;;;;13.15;5.37;;;;;;;18.05;72.26;98730.10;1737403;81;21486;-81
2022/08/28 02:43:33;;;;;;;10.30;4.75;;;;;;;17.97;70.30;98734.52;1738465;81;21052;-81
2022/08/28 02:46:00;;;;;;;18.00;5.55;;;;;;;17.89;70.44;98733.66;1713151;83;21065;-82
2022/08/28 02:48:30;;;;;;;13.03;5.53;;;;;;;17.85;70.68;98732.63;1735040;83;20996;-81
2022/08/28 02:51:01;;;;;;;12.68;4.55;;;;;;;17.75;71.87;98737.57;1721203;83;21423;-82
2022/08/28 02:53:29;;;;;;;10.00;4.67;;;;;;;17.70;73.42;98733.88;1720004;83;21478;-81
2022/08/28 02:55:57;;;;;;;10.43;4.70;;;;;;;17.66;72.03;98736.32;1728820;83;20969;-80
2022/08/28 02:58:26;;;;;;;11.00;4.95;;;;;;;17.64;72.48;98742.14;1734665;82;20980;-80
2022/08/28 03:00:53;;;;;;;15.78;5.08;;;;;;;17.62;73.26;98739.23;1734891;82;21072;-81
2022/08/28 03:03:20;;;;;;;12.23;5.60;;;;;;;17.62;72.62;98740.55;1734647;82;20960;-81
2022/08/28 03:05:47;;;;;;;9.53;4.70;;;;;;;17.64;73.40;98739.98;1735047;83;21593;-81
2022/08/28 03:08:14;;;;;;;15.98;5.37;;;;;;;17.64;73.36;98743.45;1732657;82;21037;-80
2022/08/28 03:10:40;;;;;;;10.50;4.53;;;;;;;17.68;73.63;98738.86;1733420;83;21141;-80
2022/08/28 03:13:07;;;;;;;11.75;4.42;;;;;;;17.72;73.71;98746.10;1719724;83;20962;-81
2022/08/28 03:15:34;;;;;;;11.60;4.50;;;;;;;17.77;74.40;98744.05;1713582;83;20997;-81
2022/08/28 03:18:00;;;;;;;10.85;4.60;;;;;;;17.80;73.85;98749.11;1734029;83;21035;-79
2022/08/28 03:20:27;;;;;;;10.28;4.37;;;;;;;17.84;74.00;98754.12;1734102;83;21104;-81
2022/08/28 03:25:39;;;;;;;23.50;5.80;;;;;;;17.91;74.07;98751.98;1735108;82;21590;-82
2022/08/28 03:28:06;;;;;;;11.85;5.65;;;;;;;17.96;73.98;98761.73;1735108;83;20984;-82
2022/08/28 03:30:32;;;;;;;16.87;5.47;;;;;;;17.97;73.90;98770.50;1734052;83;21044;-81
2022/08/28 03:32:59;;;;;;;12.90;5.12;;;;;;;17.95;74.66;98762.69;1734789;82;20984;-82
2022/08/28 03:35:27;;;;;;;17.67;5.72;;;;;;;17.91;74.14;98773.50;1736261;83;21036;-83
2022/08/28 03:37:53;;;;;;;11.18;5.12;;;;;;;17.85;73.48;98770.77;1736884;83;21027;-82
2022/08/28 03:40:20;;;;;;;15.40;5.12;;;;;;;17.81;74.34;98772.69;1714816;82;21056;-81
2022/08/28 03:42:47;;;;;;;13.20;5.05;;;;;;;17.78;74.79;98772.02;1723567;82;21030;-82
2022/08/28 03:45:14;;;;;;;14.53;5.42;;;;;;;17.76;74.94;98764.70;1735310;81;21496;-82
2022/08/28 03:47:41;;;;;;;10.90;5.00;;;;;;;17.76;74.89;98770.80;1754726;82;21004;-80
2022/08/28 03:50:10;;;;;;;13.15;5.40;;;;;;;17.76;74.84;98771.27;1757216;82;21039;-80
2022/08/28 03:52:39;;;;;;;15.15;5.45;;;;;;;17.74;75.06;98777.09;1758076;81;21034;-81
2022/08/28 03:55:10;;;;;;;10.63;4.90;;;;;;;17.68;74.18;98780.45;1758221;82;21042;-81
2022/08/28 03:57:38;;;;;;;9.93;5.05;;;;;;;17.62;73.95;98786.07;1758303;81;20967;-81
2022/08/28 04:00:10;;;;;;;15.95;5.42;;;;;;;17.58;74.30;98788.98;1758259;81;20983;-81
2022/08/28 04:02:42;;;;;;;12.65;4.95;;;;;;;17.53;74.12;98789.70;1730273;82;20990;-80
2022/08/28 04:05:10;;;;;;;11.10;5.40;;;;;;;17.46;73.88;98787.91;1757876;82;21082;-82
2022/08/28 04:07:36;;;;;;;13.98;5.28;;;;;;;17.39;74.65;98795.77;1756809;81;21028;-81
2022/08/28 04:10:04;;;;;;;10.95;5.05;;;;;;;17.36;76.02;98798.58;1758166;82;21582;-81
2022/08/28 04:12:31;;;;;;;15.95;5.87;;;;;;;17.35;76.04;98803.44;1745018;82;21008;-81
2022/08/28 04:14:57;;;;;;;9.45;4.45;;;;;;;17.33;77.28;98801.38;1750794;82;21050;-80
2022/08/28 04:17:25;;;;;;;9.58;5.10;;;;;;;17.35;76.70;98799.50;1757318;82;21047;-80
2022/08/28 04:19:53;;;;;;;9.18;4.72;;;;;;;17.37;76.84;98802.44;1758258;82;21027;-82
2022/08/28 04:22:19;;;;;;;11.70;5.10;;;;;;;17.39;75.97;98807.59;1758277;81;21054;-81
2022/08/28 04:24:46;;;;;;;11.93;4.70;;;;;;;17.39;76.27;98810.21;1758181;81;21027;-81
2022/08/28 04:27:13;;;;;;;13.95;4.80;;;;;;;17.43;76.54;98808.66;1757327;82;21030;-81
2022/08/28 04:29:40;;;;;;;9.98;5.50;;;;;;;17.46;75.75;98817.66;1740376;81;21018;-82
2022/08/28 04:32:07;;;;;;;12.85;5.10;;;;;;;17.49;76.51;98821.91;1748576;82;21026;-81
2022/08/28 04:34:37;;;;;;;8.53;4.35;;;;;;;17.54;76.28;98821.16;1728450;82;21547;-82
2022/08/28 04:37:04;;;;;;;9.98;4.60;;;;;;;17.60;75.83;98816.86;1728779;82;21077;-80
2022/08/28 04:39:31;;;;;;;12.63;4.62;;;;;;;17.62;75.99;98818.92;1757397;80;21097;-81
2022/08/28 04:41:57;;;;;;;13.72;4.70;;;;;;;17.59;75.74;98816.97;1738812;81;21025;-81
2022/08/28 04:44:24;;;;;;;17.73;5.70;;;;;;;17.61;75.56;98817.25;1741093;82;20968;-82
2022/08/28 04:46:52;;;;;;;9.50;4.90;;;;;;;17.63;76.29;98815.86;1742629;82;21059;-81
2022/08/28 04:49:18;;;;;;;14.23;5.08;;;;;;;17.65;75.09;98821.87;1743320;82;20992;-83
2022/08/28 04:51:45;;;;;;;14.05;5.85;;;;;;;17.63;75.65;98823.27;1745196;82;21067;-83
2022/08/28 04:54:11;;;;;;;16.27;5.05;;;;;;;17.67;74.40;98826.09;1721552;82;21067;-84
2022/08/28 04:56:40;;;;;;;15.08;5.08;;;;;;;17.70;74.79;98832.47;1725641;82;21011;-82
2022/08/28 04:59:08;;;;;;;10.25;5.33;;;;;;;17.76;75.96;98836.52;1742008;81;21023;-82
2022/08/28 05:01:34;;;;;;;13.15;5.33;;;;;;;17.82;75.81;98838.79;1741553;82;20980;-82
2022/08/28 05:04:02;;;;;;;15.38;5.53;;;;;;;17.87;75.03;98830.69;1741130;82;21027;-79
2022/08/28 05:06:32;;;;;;;11.83;5.67;;;;;;;17.90;74.66;98834.42;1741757;82;21055;-81
2022/08/28 05:09:02;;;;;;;13.68;5.03;;;;;;;17.93;74.06;98838.20;1724616;82;21039;-82
2022/08/28 05:11:30;;;;;;;9.03;4.95;;;;;;;17.93;74.01;98836.89;1733233;82;20995;-82
2022/08/28 05:13:57;;;;;;;15.58;5.35;;;;;;;17.95;74.53;98833.70;1722053;82;21011;-82
2022/08/28 05:16:24;;;;;;;11.03;5.12;;;;;;;17.98;74.26;98837.45;1741017;82;21067;-82
2022/08/28 05:18:51;;;;;;;16.42;5.08;;;;;;;18.04;74.49;98833.61;1713879;82;21017;-81
2022/08/28 05:21:22;;;;;;;12.20;5.47;;;;;;;18.09;74.59;98835.03;1741431;81;20988;-82
2022/08/28 05:23:52;;;;;;;9.40;4.80;;;;;;;18.20;74.74;98833.05;1741802;82;21036;-80
2022/08/28 05:26:20;;;;;;;13.10;4.80;;;;;;;18.29;74.64;98831.66;1741881;82;20992;-81
2022/08/28 05:28:47;;;;;;;13.13;5.33;;;;;;;18.42;74.72;98834.37;1741939;82;21071;-81
2022/08/28 05:31:18;;;;;;;12.00;4.70;;;;;;;18.56;74.73;98837.48;1741304;82;21136;-82
2022/08/28 05:33:46;;;;;;;11.70;5.92;;;;;;;18.67;74.49;98838.50;1718225;81;21075;-82
2022/08/28 05:36:14;;;;;;;14.28;6.00;;;;;;;18.78;73.93;98837.85;1723624;82;20996;-82
2022/08/28 05:38:41;;;;;;;15.88;5.83;;;;;;;18.84;73.85;98848.47;1678135;84;21654;-82
2022/08/28 05:41:08;;;;;;;15.20;5.40;;;;;;;18.90;73.39;98844.17;1683739;85;20995;-82
2022/08/28 05:43:36;;;;;;;10.32;5.03;;;;;;;18.95;72.83;98843.87;1680760;85;21036;-82
2022/08/28 05:46:10;;;;;;;18.48;5.60;;;;;;;19.00;72.97;98850.54;1677814;85;20996;-81
2022/08/28 05:48:38;;;;;;;12.33;5.12;;;;;;;19.09;72.41;98855.68;1677052;85;20992;-81
2022/08/28 05:51:08;;;;;;;9.33;5.37;;;;;;;19.16;72.37;98853.04;1678009;85;21107;-81
2022/08/28 05:53:39;;;;;;;13.50;5.90;;;;;;;19.25;72.38;98854.22;1677733;85;21547;-81
2022/08/28 05:56:13;;;;;;;14.38;5.20;;;;;;;19.28;71.65;98852.23;1676928;85;21012;-80
2022/08/28 05:58:41;;;;;;;12.20;4.90;;;;;;;19.33;71.66;98852.41;1659094;85;21097;-82
2022/08/28 06:01:20;;;;;;;9.60;4.47;;;;;;;19.36;71.78;98852.20;1671786;85;20992;-81
2022/08/28 06:03:55;;;;;;;14.90;5.62;;;;;;;19.42;71.50;98845.23;1677667;85;21109;-81
2022/08/28 06:06:24;;;;;;;14.78;5.62;;;;;;;19.45;71.36;98842.37;1658699;85;21028;-80
2022/08/28 06:08:56;;;;;;;9.20;4.80;;;;;;;19.53;71.50;98851.11;1677680;85;21006;-81
2022/08/28 06:11:23;;;;;;;10.60;5.03;;;;;;;19.61;70.65;98847.48;1678110;85;21472;-82
2022/08/28 06:13:51;;;;;;;12.73;5.55;;;;;;;19.67;70.68;98850.55;1658728;85;20984;-82
2022/08/28 06:16:18;;;;;;;12.18;4.62;;;;;;;19.75;70.41;98847.92;1677974;85;21523;-82
2022/08/28 06:18:45;;;;;;;11.10;4.60;;;;;;;19.81;70.26;98845.70;1670556;85;21029;-82
2022/08/28 06:21:12;;;;;;;13.30;5.03;;;;;;;19.92;70.16;98848.13;1643143;85;21029;-82
2022/08/28 06:23:40;;;;;;;7.20;3.98;;;;;;;20.02;70.14;98850.02;1671846;85;21539;-81
2022/08/28 06:26:06;;;;;;;11.38;4.28;;;;;;;20.11;69.97;98855.62;1677864;85;21072;-81
2022/08/28 06:28:33;;;;;;;10.63;4.08;;;;;;;20.22;69.69;98852.62;1677791;85;21543;-82
2022/08/28 06:31:03;;;;;;;10.03;4.35;;;;;;;20.34;69.84;98848.77;1677952;85;20996;-81
2022/08/28 06:33:30;;;;;;;10.95;4.90;;;;;;;20.42;69.72;98849.92;1677755;85;21067;-81
2022/08/28 06:35:57;;;;;;;8.40;4.83;;;;;;;20.51;69.47;98848.91;1658657;85;21012;-81
2022/08/28 06:38:25;;;;;;;9.33;4.08;;;;;;;20.61;69.18;98851.30;1677758;84;21013;-82
2022/08/28 06:40:55;;;;;;;9.53;4.45;;;;;;;20.69;68.57;98855.59;1671704;85;21111;-81
2022/08/28 06:43:27;;;;;;;8.53;4.75;;;;;;;20.75;68.20;98851.64;1667677;84;21135;-80
2022/08/28 06:45:56;;;;;;;17.60;4.20;;;;;;;20.82;67.89;98849.78;1737774;82;20992;-82
2022/08/28 06:48:27;;;;;;;13.32;4.75;;;;;;;20.91;67.33;98843.47;1725853;82;20995;-81
2022/08/28 06:50:56;;;;;;;11.50;4.62;;;;;;;20.96;67.46;98847.95;1744465;82;21138;-80
2022/08/28 06:53:27;;;;;;;16.35;4.97;;;;;;;21.03;67.05;98846.58;1744742;82;21042;-81
2022/08/28 06:56:06;;;;;;;15.48;4.65;;;;;;;21.08;66.82;98847.06;1744463;82;21003;-81
2022/08/28 06:58:36;;;;;;;14.83;4.72;;;;;;;21.16;66.65;98849.16;1744785;81;20976;-82
2022/08/28 07:01:10;;;;;;;12.80;4.47;;;;;;;21.26;66.18;98844.89;1743387;82;21016;-83
2022/08/28 07:03:39;;;;;;;12.55;4.58;;;;;;;21.35;66.17;98843.39;1730286;82;20958;-81
2022/08/28 07:06:08;;;;;;;6.87;4.00;;;;;;;21.43;66.02;98833.11;1735917;82;21031;-81
2022/08/28 07:08:36;;;;;;;13.00;5.00;;;;;;;21.62;65.58;98846.63;1728089;82;20983;-82
2022/08/28 07:11:26;;;;;;;12.80;4.10;;;;;;;21.71;65.35;98842.47;1744996;82;21534;-82
2022/08/28 07:13:54;;;;;;;8.93;4.33;;;;;;;21.81;64.62;98848.75;1724602;82;20979;-82
2022/08/28 07:16:25;;;;;;;13.68;4.62;;;;;;;21.90;64.37;98849.85;1745070;82;20980;-81
2022/08/28 07:18:53;;;;;;;15.03;4.55;;;;;;;21.98;64.13;98837.36;1737623;82;20972;-82
2022/08/28 07:21:20;;;;;;;15.80;4.67;;;;;;;22.05;63.60;98842.56;1732520;82;21027;-83
2022/08/28 07:23:47;;;;;;;10.10;4.37;;;;;;;22.13;63.58;98842.81;1745144;82;20956;-82
2022/08/28 07:26:22;;;;;;;9.93;4.40;;;;;;;22.16;63.34;98839.08;1745333;82;21035;-81
2022/08/28 07:28:53;;;;;;;10.48;4.30;;;;;;;22.25;62.57;98841.06;1743973;82;21046;-82
2022/08/28 07:31:25;;;;;;;8.28;4.28;;;;;;;22.33;62.36;98841.30;1730705;82;21531;-81
2022/08/28 07:33:54;;;;;;;12.37;4.47;;;;;;;22.40;62.45;98847.82;1740310;82;21005;-82
2022/08/28 07:36:26;;;;;;;10.35;4.90;;;;;;;22.38;62.41;98827.23;1745030;82;21487;-81
2022/08/28 07:38:55;;;;;;;7.90;4.28;;;;;;;22.54;61.47;98842.77;1744738;81;21749;-81
2022/08/28 07:41:26;;;;;;;11.63;4.37;;;;;;;22.62;61.59;98844.79;1745122;82;21531;-82
2022/08/28 07:46:39;;;;;;;10.08;4.25;;;;;;;22.74;61.29;98848.28;1737947;83;21016;-83
2022/08/28 07:49:07;;;;;;;11.12;4.30;;;;;;;22.85;61.10;98839.00;1714742;83;21040;-83
2022/08/28 07:51:35;;;;;;;13.05;4.85;;;;;;;22.90;60.44;98835.52;1720334;83;21016;-82
2022/08/28 07:54:02;;;;;;;7.65;3.92;;;;;;;22.96;60.28;98836.34;1736568;83;21096;-82
2022/08/28 07:56:30;;;;;;;8.80;4.22;;;;;;;23.03;60.47;98840.20;1707731;84;21083;-82
2022/08/28 07:58:58;;;;;;;19.52;4.70;;;;;;;23.16;60.29;98837.91;1727149;83;21359;-82
2022/08/28 08:01:28;;;;;;;9.58;3.70;;;;;;;23.25;59.54;98842.44;1737409;83;21048;-82
2022/08/28 08:03:55;;;;;;;12.40;4.20;;;;;;;23.38;59.71;98828.54;1714743;82;21032;-81
2022/08/28 08:06:21;;;;;;;16.25;4.03;;;;;;;23.51;59.53;98831.00;1731262;83;21032;-82
2022/08/28 08:08:48;;;;;;;9.75;4.45;;;;;;;23.61;57.44;98829.76;1734361;82;21021;-82
2022/08/28 08:11:17;;;;;;;13.00;5.25;;;;;;;23.76;58.68;98831.14;1736878;82;21128;-82
2022/08/28 08:13:46;;;;;;;9.10;3.98;;;;;;;23.85;58.68;98826.05;1698423;83;20978;-82
2022/08/28 08:16:18;;;;;;;10.45;4.70;;;;;;;23.97;58.29;98830.33;1679873;85;21015;-82
2022/08/28 08:18:47;;;;;;;11.03;3.95;;;;;;;24.06;57.20;98827.39;1665500;86;20985;-82
2022/08/28 08:21:17;;;;;;;8.78;4.22;;;;;;;24.15;57.74;98826.58;1724564;83;20997;-83
2022/08/28 08:23:45;;;;;;;17.20;5.12;;;;;;;24.29;57.57;98830.25;1738264;80;20972;-82
2022/08/28 08:26:16;;;;;;;11.45;4.60;;;;;;;24.44;57.32;98829.89;1739606;77;21294;-83
2022/08/28 08:28:44;;;;;;;12.25;4.70;;;;;;;24.55;57.02;98829.81;1739774;80;21051;-83
2022/08/28 08:31:22;;;;;;;7.70;4.10;;;;;;;24.62;56.46;98830.97;1739882;80;20960;-82
2022/08/28 08:33:53;;;;;;;16.35;4.33;;;;;;;24.72;54.22;98828.34;1738520;82;21019;-82
2022/08/28 08:36:22;;;;;;;9.65;3.95;;;;;;;24.83;55.09;98832.70;1717022;82;20940;-82
2022/08/28 08:38:51;;;;;;;14.03;5.50;;;;;;;24.92;55.73;98830.57;1739912;82;21063;-82
2022/08/28 08:41:26;;;;;;;11.93;4.65;;;;;;;25.04;55.54;98825.98;1736772;83;21028;-81
2022/08/28 08:44:06;;;;;;;13.28;4.17;;;;;;;25.15;55.21;98825.37;1735010;82;21082;-80
2022/08/28 08:46:50;;;;;;;9.48;4.47;;;;;;;25.29;55.25;98834.80;1703009;83;21057;-81
2022/08/28 08:49:21;;;;;;;16.67;4.75;;;;;;;25.37;54.07;98828.79;1732464;83;21119;-82
2022/08/28 08:52:09;;;;;;;11.38;4.60;;;;;;;25.49;54.38;98838.31;1736773;82;21012;-82
2022/08/28 08:54:43;;;;;;;16.48;5.08;;;;;;;25.59;53.93;98828.50;1710120;83;20993;-81
2022/08/28 08:57:13;;;;;;;13.90;5.00;;;;;;;25.68;52.94;98828.13;1718516;83;21031;-81
2022/08/28 08:59:41;;;;;;;8.83;4.35;;;;;;;25.74;53.11;98826.73;1707508;84;21543;-82
2022/08/28 09:02:18;;;;;;;12.65;4.70;;;;;;;25.85;53.46;98823.92;1723830;83;21051;-80
2022/08/28 09:05:08;;;;;;;12.00;4.22;;;;;;;25.96;53.39;98817.63;1736695;82;21007;-82
2022/08/28 09:07:55;;;;;;;11.05;4.60;;;;;;;26.10;53.46;98815.86;1736972;83;21036;-82
2022/08/28 09:10:27;;;;;;;12.80;4.20;;;;;;;26.30;53.32;98814.44;1737260;82;20999;-82
2022/08/28 09:13:04;;;;;;;10.05;3.95;;;;;;;26.55;52.08;98814.28;1712059;82;21119;-82
2022/08/28 09:15:36;;;;;;;13.25;4.58;;;;;;;26.68;51.13;98820.63;1736118;82;21031;-83
2022/08/28 09:18:20;;;;;;;11.43;4.37;;;;;;;26.78;51.48;98825.44;1737338;82;21075;-83
2022/08/28 09:20:57;;;;;;;7.58;4.53;;;;;;;26.85;51.67;98816.34;1718066;83;20976;-83
2022/08/28 09:23:27;;;;;;;16.67;3.90;;;;;;;26.94;51.14;98816.79;1737221;82;21055;-83
2022/08/28 09:26:01;;;;;;;12.00;4.10;;;;;;;27.04;49.53;98812.23;1724167;83;20993;-83
2022/08/28 09:28:33;;;;;;;16.23;4.53;;;;;;;27.18;49.54;98817.54;1726415;83;21040;-83
2022/08/28 09:31:16;;;;;;;13.98;4.10;;;;;;;27.26;48.57;98815.48;1699061;83;21564;-84
2022/08/28 09:33:46;;;;;;;16.45;4.58;;;;;;;27.32;48.85;98813.54;1737654;82;22080;-82
2022/08/28 09:36:30;;;;;;;11.45;3.58;;;;;;;27.43;48.21;98809.28;1737435;83;21036;-83
2022/08/28 09:39:14;;;;;;;10.88;4.80;;;;;;;27.52;46.42;98808.88;1733631;81;21083;-83
2022/08/28 09:44:59;;;;;;;13.32;3.72;;;;;;;27.81;47.09;98805.92;1737368;82;21024;-83
2022/08/28 09:47:49;;;;;;;13.65;4.75;;;;;;;28.01;47.76;98808.42;1737090;82;21020;-82
2022/08/28 09:50:35;;;;;;;23.02;5.08;;;;;;;28.18;47.18;98810.22;1733993;83;21559;-82
2022/08/28 09:53:13;;;;;;;13.58;4.40;;;;;;;28.32;46.77;98810.95;1737419;82;21079;-83
2022/08/28 09:56:24;;;;;;;13.18;4.28;;;;;;;28.45;46.55;98805.66;1737088;83;21534;-83
2022/08/28 09:58:56;;;;;;;11.93;3.95;;;;;;;28.64;46.26;98807.30;1726009;83;21004;-83
2022/08/28 10:01:47;;;;;;;10.15;3.67;;;;;;;28.83;45.52;98795.47;1736540;82;21028;-83
2022/08/28 10:04:40;;;;;;;12.63;3.95;;;;;;;28.98;44.54;98801.05;1714337;83;20977;-83
2022/08/28 10:07:29;;;;;;;11.08;4.17;;;;;;;29.13;41.97;98798.11;1737177;82;21023;-83
2022/08/28 10:10:24;;;;;;;12.15;4.58;;;;;;;29.27;41.95;98803.32;1729244;82;21008;-83
2022/08/28 10:13:17;;;;;;;10.75;3.95;;;;;;;29.46;42.67;98798.96;1730527;83;21095;-82
2022/08/28 10:16:08;;;;;;;13.78;4.33;;;;;;;29.60;42.09;98786.75;1737465;83;20980;-82
2022/08/28 10:19:04;;;;;;;16.65;4.90;;;;;;;29.75;40.53;98790.97;1735544;82;21024;-83
2022/08/28 10:21:45;;;;;;;17.98;4.55;;;;;;;29.87;41.77;98781.57;1737265;82;20972;-83
2022/08/28 10:24:49;;;;;;;10.18;3.95;;;;;;;30.02;42.14;98780.87;1727098;82;21012;-83
2022/08/28 10:27:55;;;;;;;12.55;3.80;;;;;;;30.21;42.26;98774.30;1734848;83;20993;-83
2022/08/28 10:30:24;;;;;;;13.48;4.45;;;;;;;30.42;42.19;98769.72;1737504;82;21036;-83
2022/08/28 10:33:08;;;;;;;17.75;4.30;;;;;;;30.68;42.28;98772.97;1725044;82;21038;-83
2022/08/28 10:35:43;;;;;;;10.40;4.58;;;;;;;30.90;41.72;98769.20;1688003;83;21048;-83
2022/08/28 10:38:36;;;;;;;10.25;4.10;;;;;;;31.10;41.30;98769.57;1723137;82;20996;-82
2022/08/28 10:41:11;;;;;;;8.73;4.00;;;;;;;31.28;41.13;98764.73;1717185;83;21110;-84
2022/08/28 10:43:53;;;;;;;13.22;4.22;;;;;;;31.42;40.26;98763.63;1737942;83;21031;-84
2022/08/28 10:46:41;;;;;;;12.55;4.35;;;;;;;31.57;40.63;98759.66;1709186;84;21004;-84
2022/08/28 10:49:27;;;;;;;17.70;4.67;;;;;;;31.76;40.44;98761.83;1709272;84;21016;-84
2022/08/28 10:52:05;;;;;;;11.05;3.62;;;;;;;31.96;40.22;98759.96;1725135;83;20992;-83
2022/08/28 10:55:12;;;;;;;13.85;3.95;;;;;;;32.12;39.00;98750.91;1738121;82;21052;-84
2022/08/28 10:57:56;;;;;;;7.90;2.98;;;;;;;32.24;38.64;98751.59;1738403;83;20972;-84
2022/08/28 11:00:26;;;;;;;8.38;3.45;;;;;;;32.42;37.06;98752.55;1738866;82;21023;-83
2022/08/28 11:03:11;;;;;;;13.18;3.72;;;;;;;32.45;36.80;98747.30;1738833;83;21051;-84
2022/08/28 11:05:55;;;;;;;12.53;4.42;;;;;;;32.56;37.05;98745.51;1738802;82;20973;-84
2022/08/28 11:08:31;;;;;;;11.00;3.55;;;;;;;32.74;36.16;98747.79;1738590;82;20996;-84
2022/08/28 11:11:05;;;;;;;14.07;3.83;;;;;;;32.91;36.23;98745.70;1738758;83;20968;-83
2022/08/28 11:13:52;;;;;;;10.13;3.90;;;;;;;32.96;35.32;98748.64;1739014;83;21004;-84
2022/08/28 11:16:30;;;;;;;11.40;3.80;;;;;;;33.09;34.28;98746.65;1738244;83;21016;-84
2022/08/28 11:19:16;;;;;;;9.70;3.45;;;;;;;33.19;34.79;98742.30;1737640;82;21029;-84
2022/08/28 11:21:48;;;;;;;11.00;3.95;;;;;;;33.40;34.06;98734.69;1668873;82;21052;-84
2022/08/28 11:24:39;;;;;;;13.00;5.08;;;;;;;33.60;33.68;98738.37;1727191;82;21005;-84
2022/08/28 11:27:34;;;;;;;12.03;3.72;;;;;;;33.75;33.08;98738.31;1734571;83;21071;-85
2022/08/28 11:30:18;;;;;;;8.58;3.60;;;;;;;33.98;33.01;98745.30;1739002;82;20960;-83
2022/08/28 11:32:56;;;;;;;12.10;4.00;;;;;;;34.13;32.54;98735.23;1712458;83;21047;-84
2022/08/28 11:35:43;;;;;;;9.70;3.58;;;;;;;34.18;31.39;98736.00;1731738;83;21031;-84
2022/08/28 11:38:10;;;;;;;9.68;3.62;;;;;;;34.27;31.75;98730.24;1737906;82;20972;-83
2022/08/28 11:40:54;;;;;;;13.55;4.05;;;;;;;34.46;31.65;98729.17;1739851;83;21092;-85
2022/08/28 11:43:30;;;;;;;10.90;3.90;;;;;;;34.69;31.26;98722.13;1740158;83;21064;-84
2022/08/28 11:46:05;;;;;;;10.25;3.77;;;;;;;35.00;31.52;98724.28;1757181;82;21070;-84
2022/08/28 11:48:41;;;;;;;15.53;4.80;;;;;;;35.25;29.39;98718.30;1762008;80;21063;-84
2022/08/28 11:51:19;;;;;;;7.08;3.45;;;;;;;35.41;30.25;98719.23;1761835;80;21071;-83
2022/08/28 11:54:14;;;;;;;9.38;3.00;;;;;;;35.73;29.47;98728.09;1761857;80;21111;-83
2022/08/28 11:57:13;;;;;;;7.28;3.70;;;;;;;35.90;27.36;98719.02;1762131;79;21023;-83
2022/08/28 12:00:24;;;;;;;10.50;3.90;;;;;;;36.02;28.29;98718.67;1728801;82;21034;-84
2022/08/28 12:03:14;;;;;;;10.65;3.08;;;;;;;36.22;28.01;98718.64;1761571;78;20992;-83